Terminal Aerodrome Forecast
Issued by NWS Twin Cities, MN

Home | Current Version | Previous Version | Graphics & Text | Print | Product List | Glossary Off
Versions: 1 2 3 4 5 6 7 8 9 10 11 12 13 14 15 16

000
FTUS43 KMPX 212300
TAFSTC
TAF
KSTC 212332Z 2200/2224 18012KT P6SM BKN150
     FM220400 20010KT P6SM FEW005 BKN015
     FM220600 21007KT 6SM BR BKN007=

USA.gov is the U.S. government's official web portal to all federal, state and local government web resources and services.